createdAt,value
2019-03-24T00:01:24.476Z,4.70
2019-03-24T00:03:54.370Z,4.87
2019-03-24T00:06:24.228Z,5.17
2019-03-24T00:08:54.488Z,5.37
2019-03-24T00:11:24.377Z,5.80
2019-03-24T00:13:54.276Z,4.90
2019-03-24T00:16:24.151Z,6.07
2019-03-24T00:18:54.037Z,4.70
2019-03-24T00:21:23.920Z,5.20
2019-03-24T00:23:53.837Z,4.60
2019-03-24T00:26:23.707Z,5.23
2019-03-24T00:28:53.613Z,4.87
2019-03-24T00:31:23.507Z,5.03
2019-03-24T00:33:53.388Z,5.37
2019-03-24T00:36:23.303Z,4.30
2019-03-24T00:38:53.201Z,4.67
2019-03-24T00:41:23.065Z,4.50
2019-03-24T00:43:52.967Z,4.97
2019-03-24T00:46:22.837Z,4.77
2019-03-24T00:48:52.733Z,5.03
2019-03-24T00:51:22.613Z,5.17
2019-03-24T00:53:52.470Z,4.70
2019-03-24T00:56:22.362Z,4.20
2019-03-24T00:58:52.533Z,4.67
2019-03-24T01:01:22.435Z,4.40
2019-03-24T01:03:52.698Z,4.47
2019-03-24T01:06:22.666Z,4.20
2019-03-24T01:08:52.590Z,5.33
2019-03-24T01:11:22.499Z,4.97
2019-03-24T01:13:52.374Z,5.23
2019-03-24T01:16:22.271Z,5.33
2019-03-24T01:18:52.157Z,5.30
2019-03-24T01:21:22.035Z,5.20
2019-03-24T01:23:51.902Z,5.17
2019-03-24T01:26:21.804Z,4.93
2019-03-24T01:28:51.690Z,5.23
2019-03-24T01:31:21.556Z,4.87
2019-03-24T01:33:51.451Z,5.47
2019-03-24T01:36:21.321Z,5.93
2019-03-24T01:38:51.218Z,6.00
2019-03-24T01:41:21.091Z,5.57
2019-03-24T01:43:50.987Z,5.37
2019-03-24T01:46:20.884Z,6.33
2019-03-24T01:48:51.052Z,5.80
2019-03-24T01:51:20.945Z,5.67
2019-03-24T01:53:51.088Z,5.07
2019-03-24T01:56:20.965Z,5.80
2019-03-24T01:58:50.826Z,6.00
2019-03-24T02:01:20.746Z,5.87
2019-03-24T02:03:50.629Z,5.17
2019-03-24T02:06:20.896Z,5.80
2019-03-24T02:08:50.801Z,5.30
2019-03-24T02:11:20.894Z,6.40
2019-03-24T02:13:50.739Z,6.33
2019-03-24T02:16:20.627Z,5.63
2019-03-24T02:18:50.489Z,5.30
2019-03-24T02:21:20.399Z,6.07
2019-03-24T02:23:50.279Z,6.00
2019-03-24T02:26:20.133Z,5.97
2019-03-24T02:28:50.029Z,5.50
2019-03-24T02:31:19.913Z,5.83
2019-03-24T02:33:49.783Z,5.17
2019-03-24T02:36:19.675Z,5.67
2019-03-24T02:38:49.567Z,5.80
2019-03-24T02:41:19.435Z,5.60
2019-03-24T02:43:49.316Z,5.80
2019-03-24T02:46:24.740Z,5.77
2019-03-24T02:48:50.804Z,5.93
2019-03-24T02:51:20.664Z,5.10
2019-03-24T02:53:50.640Z,5.57
2019-03-24T02:56:20.516Z,5.93
2019-03-24T02:58:50.373Z,5.30
2019-03-24T03:01:20.260Z,5.53
2019-03-24T03:03:50.151Z,5.60
2019-03-24T03:06:20.018Z,6.80
2019-03-24T03:08:49.898Z,5.57
2019-03-24T03:11:19.820Z,7.10
2019-03-24T03:13:49.696Z,6.27
2019-03-24T03:16:19.555Z,7.30
2019-03-24T03:18:49.448Z,6.23
2019-03-24T03:21:19.329Z,5.90
2019-03-24T03:23:49.175Z,5.33
2019-03-24T03:26:19.088Z,5.30
2019-03-24T03:28:49.336Z,6.23
2019-03-24T03:31:19.184Z,5.90
2019-03-24T03:33:49.052Z,6.20
2019-03-24T03:36:18.955Z,5.57
2019-03-24T03:38:48.833Z,5.30
2019-03-24T03:41:18.712Z,6.00
2019-03-24T03:43:48.559Z,5.53
2019-03-24T03:46:18.440Z,5.70
2019-03-24T03:48:48.335Z,5.80
2019-03-24T03:51:18.557Z,5.37
2019-03-24T03:53:48.458Z,5.93
2019-03-24T03:56:18.328Z,5.67
2019-03-24T03:58:48.241Z,5.70
2019-03-24T04:01:18.081Z,5.77
2019-03-24T04:03:47.972Z,5.60
2019-03-24T04:06:17.868Z,5.67
2019-03-24T04:08:47.742Z,5.53
2019-03-24T04:11:17.657Z,6.20
2019-03-24T04:13:47.539Z,6.63
2019-03-24T04:16:17.398Z,5.93
2019-03-24T04:18:47.282Z,5.60
2019-03-24T04:21:17.153Z,5.87
2019-03-24T04:23:47.041Z,5.60
2019-03-24T04:26:16.920Z,5.07
2019-03-24T04:28:46.821Z,5.87
2019-03-24T04:31:16.674Z,5.57
2019-03-24T04:33:46.576Z,5.83
2019-03-24T04:36:16.459Z,5.80
2019-03-24T04:38:46.681Z,6.40
2019-03-24T04:41:16.534Z,6.23
2019-03-24T04:43:46.412Z,5.77
2019-03-24T04:46:16.283Z,6.07
2019-03-24T04:48:46.155Z,6.03
2019-03-24T04:51:16.358Z,5.60
2019-03-24T04:53:46.226Z,6.00
2019-03-24T04:56:16.124Z,6.80
2019-03-24T04:58:46.000Z,6.10
2019-03-24T05:01:15.869Z,5.67
2019-03-24T05:03:46.133Z,5.20
2019-03-24T05:06:16.302Z,5.63
2019-03-24T05:08:46.685Z,5.97
2019-03-24T05:11:16.905Z,5.97
2019-03-24T05:13:46.843Z,6.10
2019-03-24T05:16:17.090Z,5.77
2019-03-24T05:18:46.959Z,6.50
2019-03-24T05:21:16.812Z,6.27
2019-03-24T05:23:46.691Z,6.00
2019-03-24T05:26:16.569Z,5.60
2019-03-24T05:28:46.457Z,5.90
2019-03-24T05:31:16.317Z,5.73
2019-03-24T05:33:46.217Z,6.27
2019-03-24T05:36:16.079Z,5.67
2019-03-24T05:38:45.957Z,5.83
2019-03-24T05:41:15.820Z,5.93
2019-03-24T05:43:46.010Z,5.90
2019-03-24T05:46:15.878Z,5.80
2019-03-24T05:48:46.131Z,5.70
2019-03-24T05:51:16.012Z,5.53
2019-03-24T05:53:45.886Z,5.80
2019-03-24T05:56:15.766Z,5.10
2019-03-24T05:58:45.661Z,5.40
2019-03-24T06:01:15.522Z,5.50
2019-03-24T06:03:45.411Z,5.50
2019-03-24T06:06:15.275Z,5.90
2019-03-24T06:08:45.556Z,5.70
2019-03-24T06:11:15.479Z,5.17
2019-03-24T06:13:45.382Z,5.73
2019-03-24T06:16:15.272Z,5.93
2019-03-24T06:18:45.120Z,4.87
2019-03-24T06:21:15.035Z,5.40
2019-03-24T06:23:44.890Z,5.03
2019-03-24T06:26:14.789Z,4.93
2019-03-24T06:28:44.668Z,4.57
2019-03-24T06:31:14.546Z,4.47
2019-03-24T06:33:44.392Z,5.10
2019-03-24T06:36:14.292Z,4.63
2019-03-24T06:38:44.136Z,4.70
2019-03-24T06:41:14.065Z,4.87
2019-03-24T06:43:43.982Z,5.27
2019-03-24T06:46:15.072Z,4.80
2019-03-24T06:48:45.050Z,4.60
2019-03-24T06:51:14.913Z,4.97
2019-03-24T06:53:44.780Z,5.60
2019-03-24T06:56:14.640Z,5.47
2019-03-24T06:58:44.531Z,4.93
2019-03-24T07:01:14.432Z,5.37
2019-03-24T07:03:44.294Z,5.00
2019-03-24T07:06:14.190Z,5.57
2019-03-24T07:08:44.073Z,5.00
2019-03-24T07:11:14.083Z,5.07
2019-03-24T07:13:43.954Z,5.33
2019-03-24T07:16:15.279Z,5.07
2019-03-24T07:18:45.185Z,4.70
2019-03-24T07:21:15.076Z,6.20
2019-03-24T07:23:44.972Z,4.37
2019-03-24T07:26:14.919Z,5.97
2019-03-24T07:28:44.751Z,5.00
2019-03-24T07:31:15.009Z,5.17
2019-03-24T07:33:44.903Z,4.53
2019-03-24T07:36:14.756Z,4.80
2019-03-24T07:38:44.651Z,4.70
2019-03-24T07:41:14.538Z,4.20
2019-03-24T07:43:44.395Z,3.83
2019-03-24T07:46:14.277Z,3.97
2019-03-24T07:48:44.166Z,3.40
2019-03-24T07:51:44.070Z,3.97
2019-03-24T07:54:13.960Z,3.43
2019-03-24T07:56:43.829Z,3.40
2019-03-24T07:59:13.726Z,3.00
2019-03-24T08:01:43.595Z,3.60
2019-03-24T08:04:13.530Z,3.00
2019-03-24T08:06:43.400Z,3.20
2019-03-24T08:09:13.671Z,2.93
2019-03-24T08:11:43.541Z,2.77
2019-03-24T08:14:13.480Z,3.17
2019-03-24T08:16:43.330Z,2.70
2019-03-24T08:19:13.207Z,3.37
2019-03-24T08:21:43.054Z,3.00
2019-03-24T08:24:12.951Z,2.50
2019-03-24T08:26:42.825Z,2.90
2019-03-24T08:29:12.718Z,2.73
2019-03-24T08:31:42.618Z,2.53
2019-03-24T08:34:12.500Z,2.13
2019-03-24T08:36:42.380Z,2.53
2019-03-24T08:39:12.254Z,2.17
2019-03-24T08:41:42.167Z,1.87
2019-03-24T08:44:12.056Z,2.13
2019-03-24T08:46:44.183Z,2.50
2019-03-24T08:49:13.863Z,2.43
2019-03-24T08:51:43.715Z,2.27
2019-03-24T08:54:13.604Z,2.27
2019-03-24T08:56:43.468Z,2.57
2019-03-24T08:59:13.349Z,2.27
2019-03-24T09:01:43.213Z,3.53
2019-03-24T09:04:13.085Z,2.83
2019-03-24T09:06:42.950Z,2.57
2019-03-24T09:09:12.840Z,2.73
2019-03-24T09:11:42.703Z,2.93
2019-03-24T09:14:12.582Z,2.57
2019-03-24T09:16:42.505Z,2.40
2019-03-24T09:19:12.382Z,1.97
2019-03-24T09:21:42.275Z,2.53
2019-03-24T09:24:12.268Z,2.30
2019-03-24T09:26:42.137Z,2.40
2019-03-24T09:29:11.998Z,2.23
2019-03-24T09:31:41.907Z,2.70
2019-03-24T09:34:11.770Z,1.53
2019-03-24T09:36:41.954Z,1.57
2019-03-24T09:39:11.806Z,1.73
2019-03-24T09:41:41.682Z,1.20
2019-03-24T09:44:11.548Z,2.20
2019-03-24T09:46:41.437Z,1.93
2019-03-24T09:49:11.296Z,1.97
2019-03-24T09:51:41.186Z,2.23
2019-03-24T09:54:11.053Z,2.17
2019-03-24T09:56:40.939Z,1.80
2019-03-24T09:59:11.090Z,1.73
2019-03-24T10:01:40.972Z,1.80
2019-03-24T10:04:10.846Z,1.70
2019-03-24T10:06:40.723Z,2.37
2019-03-24T10:09:10.610Z,1.90
2019-03-24T10:11:40.482Z,1.87
2019-03-24T10:14:10.378Z,1.90
2019-03-24T10:16:40.275Z,2.43
2019-03-24T10:19:14.272Z,1.67
2019-03-24T10:21:41.788Z,2.10
2019-03-24T10:24:11.681Z,1.93
2019-03-24T10:26:41.582Z,2.00
2019-03-24T10:29:11.437Z,1.80
2019-03-24T10:31:42.661Z,1.70
2019-03-24T10:34:12.576Z,1.90
2019-03-24T10:36:42.475Z,2.00
2019-03-24T10:39:12.709Z,2.23
2019-03-24T10:41:42.586Z,1.90
2019-03-24T10:44:12.449Z,2.27
2019-03-24T10:46:42.355Z,2.30
2019-03-24T10:49:12.253Z,3.00
2019-03-24T10:51:42.105Z,3.20
2019-03-24T10:54:11.987Z,3.43
2019-03-24T10:56:41.895Z,3.23
2019-03-24T10:59:12.086Z,3.70
2019-03-24T11:01:41.972Z,3.10
2019-03-24T11:04:11.838Z,3.37
2019-03-24T11:06:41.718Z,2.77
2019-03-24T11:09:11.609Z,2.60
2019-03-24T11:11:41.778Z,2.93
2019-03-24T11:14:11.686Z,2.97
2019-03-24T11:16:42.034Z,3.10
2019-03-24T11:19:11.937Z,2.70
2019-03-24T11:21:42.097Z,2.80
2019-03-24T11:24:11.998Z,2.53
2019-03-24T11:26:41.879Z,3.10
2019-03-24T11:29:11.771Z,2.57
2019-03-24T11:31:41.682Z,2.83
2019-03-24T11:34:11.575Z,2.67
2019-03-24T11:36:41.789Z,2.73
2019-03-24T11:39:11.711Z,3.40
2019-03-24T11:41:41.566Z,2.57
2019-03-24T11:44:11.498Z,2.90
2019-03-24T11:46:41.385Z,2.30
2019-03-24T11:49:20.528Z,2.67
2019-03-24T11:51:50.403Z,2.70
2019-03-24T11:54:20.288Z,3.13
2019-03-24T11:56:50.187Z,2.70
2019-03-24T11:59:20.096Z,2.93
2019-03-24T12:01:49.990Z,2.03
2019-03-24T12:04:19.878Z,2.90
2019-03-24T12:06:51.593Z,2.90
2019-03-24T12:09:21.476Z,3.13
2019-03-24T12:11:51.695Z,2.93
2019-03-24T12:14:21.567Z,3.30
2019-03-24T12:16:51.486Z,2.90
2019-03-24T12:19:21.376Z,3.27
2019-03-24T12:21:51.275Z,3.93
2019-03-24T12:24:21.146Z,2.43
2019-03-24T12:26:51.051Z,3.20
2019-03-24T12:29:20.954Z,3.30
2019-03-24T12:31:50.837Z,3.80
2019-03-24T12:34:20.702Z,3.30
2019-03-24T12:36:51.032Z,2.60
2019-03-24T12:39:20.911Z,3.40
2019-03-24T12:41:50.800Z,3.10
2019-03-24T12:44:20.703Z,3.47
2019-03-24T12:46:51.020Z,2.90
2019-03-24T12:49:20.892Z,2.87
2019-03-24T12:51:50.786Z,2.83
2019-03-24T12:54:20.647Z,2.73
2019-03-24T12:56:50.534Z,2.40
2019-03-24T12:59:20.417Z,2.77
2019-03-24T13:01:52.777Z,2.83
2019-03-24T13:04:21.931Z,2.33
2019-03-24T13:06:51.812Z,2.30
2019-03-24T13:09:21.705Z,2.47
2019-03-24T13:11:51.589Z,2.47
2019-03-24T13:14:21.484Z,2.37
2019-03-24T13:16:51.438Z,2.30
2019-03-24T13:19:21.348Z,2.23
2019-03-24T13:21:51.570Z,2.30
2019-03-24T13:24:21.442Z,2.13
2019-03-24T13:26:51.341Z,1.80
2019-03-24T13:29:21.255Z,2.47
2019-03-24T13:31:51.150Z,1.97
2019-03-24T13:34:21.046Z,1.70
2019-03-24T13:36:50.913Z,1.60
2019-03-24T13:39:20.810Z,2.27
2019-03-24T13:41:50.797Z,1.60
2019-03-24T13:44:20.679Z,1.80
2019-03-24T13:46:50.602Z,1.60
2019-03-24T13:49:20.479Z,1.27
2019-03-24T13:51:50.744Z,1.87
2019-03-24T13:54:20.634Z,1.57
2019-03-24T13:56:50.595Z,1.80
2019-03-24T13:59:20.565Z,1.10
2019-03-24T14:01:50.560Z,1.60
2019-03-24T14:04:20.416Z,1.80
2019-03-24T14:06:50.426Z,2.07
2019-03-24T14:09:20.329Z,1.40
2019-03-24T14:11:50.270Z,2.07
2019-03-24T14:14:20.219Z,1.57
2019-03-24T14:16:50.161Z,1.40
2019-03-24T14:19:20.058Z,1.90
2019-03-24T14:21:51.049Z,1.30
2019-03-24T14:24:20.943Z,1.33
2019-03-24T14:26:50.830Z,1.90
2019-03-24T14:29:20.730Z,1.60
2019-03-24T14:31:50.612Z,1.40
2019-03-24T14:34:20.527Z,1.40
2019-03-24T14:36:50.427Z,1.43
2019-03-24T14:39:20.320Z,1.10
2019-03-24T14:41:50.223Z,1.40
2019-03-24T14:44:20.116Z,1.37
2019-03-24T14:46:50.265Z,1.27
2019-03-24T14:49:20.165Z,1.30
2019-03-24T14:51:50.085Z,1.73
2019-03-24T14:54:19.965Z,1.50
2019-03-24T14:56:49.866Z,1.50
2019-03-24T14:59:19.748Z,1.27
2019-03-24T15:01:53.540Z,0.90
2019-03-24T15:04:23.715Z,1.43
2019-03-24T15:06:53.636Z,0.73
2019-03-24T15:09:23.524Z,0.87
2019-03-24T15:11:53.738Z,1.40
2019-03-24T15:14:23.655Z,1.10
2019-03-24T15:16:53.575Z,1.10
2019-03-24T15:19:23.520Z,0.97
2019-03-24T15:21:53.406Z,1.10
2019-03-24T15:24:23.284Z,0.90
2019-03-24T15:26:53.158Z,1.00
2019-03-24T15:29:23.070Z,1.07
2019-03-24T15:31:52.958Z,1.20
2019-03-24T15:34:22.866Z,1.00
2019-03-24T15:36:52.745Z,1.17
2019-03-24T15:39:22.668Z,0.97
2019-03-24T15:41:52.573Z,1.17
2019-03-24T15:44:22.493Z,1.30
2019-03-24T15:46:52.394Z,1.37
2019-03-24T15:49:22.312Z,1.00
2019-03-24T15:51:52.540Z,0.90
2019-03-24T15:54:22.414Z,0.83
2019-03-24T15:56:52.287Z,1.07
2019-03-24T15:59:22.185Z,0.93
2019-03-24T16:01:52.066Z,2.17
2019-03-24T16:04:21.961Z,1.00
2019-03-24T16:06:51.826Z,1.23
2019-03-24T16:09:21.737Z,1.10
2019-03-24T16:11:51.612Z,1.10
2019-03-24T16:14:21.512Z,1.20
2019-03-24T16:16:51.382Z,1.00
2019-03-24T16:19:21.313Z,1.20
2019-03-24T16:21:51.181Z,1.73
2019-03-24T16:24:21.078Z,1.37
2019-03-24T16:26:51.336Z,1.30
2019-03-24T16:29:21.547Z,1.07
2019-03-24T16:31:51.430Z,1.07
2019-03-24T16:34:21.333Z,1.07
2019-03-24T16:36:51.227Z,1.17
2019-03-24T16:39:21.510Z,1.00
2019-03-24T16:41:51.407Z,1.40
2019-03-24T16:44:21.691Z,1.57
2019-03-24T16:46:51.605Z,1.00
2019-03-24T16:49:21.514Z,1.20
2019-03-24T16:51:51.428Z,1.43
2019-03-24T16:54:21.328Z,1.63
2019-03-24T16:56:52.263Z,1.80
2019-03-24T16:59:22.153Z,1.60
2019-03-24T17:01:52.014Z,1.83
2019-03-24T17:04:21.934Z,1.30
2019-03-24T17:06:51.850Z,1.53
2019-03-24T17:09:27.871Z,1.20
2019-03-24T17:11:59.804Z,1.33
2019-03-24T17:14:29.690Z,1.47
2019-03-24T17:16:59.631Z,1.53
2019-03-24T17:19:29.529Z,1.57
2019-03-24T17:21:59.449Z,1.90
2019-03-24T17:24:29.350Z,1.50
2019-03-24T17:26:59.255Z,1.60
2019-03-24T17:29:35.042Z,1.37
2019-03-24T17:32:04.918Z,1.50
2019-03-24T17:34:34.826Z,1.80
2019-03-24T17:37:04.697Z,1.50
2019-03-24T17:39:34.564Z,1.67
2019-03-24T17:42:04.505Z,1.50
2019-03-24T17:44:34.372Z,1.90
2019-03-24T17:47:04.297Z,1.50
2019-03-24T17:49:34.201Z,1.67
2019-03-24T17:52:04.214Z,1.70
2019-03-24T17:54:34.074Z,2.13
2019-03-24T17:57:03.967Z,1.57
2019-03-24T17:59:34.172Z,1.90
2019-03-24T18:02:13.882Z,1.90
2019-03-24T18:04:35.653Z,1.70
2019-03-24T18:07:05.671Z,1.53
2019-03-24T18:09:35.531Z,1.80
2019-03-24T18:12:05.375Z,1.80
2019-03-24T18:14:35.656Z,2.17
2019-03-24T18:17:05.890Z,1.67
2019-03-24T18:19:35.786Z,1.93
2019-03-24T18:22:11.573Z,2.10
2019-03-24T18:24:37.705Z,1.90
2019-03-24T18:27:07.613Z,2.20
2019-03-24T18:29:37.797Z,2.90
2019-03-24T18:32:07.677Z,3.10
2019-03-24T18:34:37.600Z,2.30
2019-03-24T18:37:07.865Z,2.67
2019-03-24T18:39:37.780Z,3.17
2019-03-24T18:42:07.681Z,3.63
2019-03-24T18:44:37.986Z,4.63
2019-03-24T18:47:07.929Z,2.60
2019-03-24T18:49:38.143Z,3.70
2019-03-24T18:52:08.004Z,2.63
2019-03-24T18:54:37.920Z,2.13
2019-03-24T18:57:07.819Z,2.63
2019-03-24T18:59:38.032Z,3.07
2019-03-24T19:02:07.901Z,3.10
2019-03-24T19:04:37.792Z,3.10
2019-03-24T19:07:07.728Z,2.40
2019-03-24T19:09:37.721Z,5.20
2019-03-24T19:12:07.918Z,3.03
2019-03-24T19:14:40.116Z,2.20
2019-03-24T19:17:10.218Z,3.10
2019-03-24T19:19:40.280Z,4.67
2019-03-24T19:22:10.581Z,5.00
2019-03-24T19:24:40.497Z,3.20
2019-03-24T19:27:10.451Z,3.73
2019-03-24T19:29:40.658Z,3.10
2019-03-24T19:32:10.554Z,2.30
2019-03-24T19:34:40.426Z,2.03
2019-03-24T19:37:10.407Z,2.20
2019-03-24T19:39:40.345Z,2.20
2019-03-24T19:42:10.250Z,2.63
2019-03-24T19:44:40.147Z,1.67
2019-03-24T19:47:10.014Z,1.80
2019-03-24T19:49:40.240Z,1.60
2019-03-24T19:52:10.436Z,1.73
2019-03-24T19:54:40.383Z,2.40
2019-03-24T19:57:10.303Z,2.13
2019-03-24T19:59:40.531Z,1.60
2019-03-24T20:02:10.845Z,2.10
2019-03-24T20:04:40.755Z,2.67
2019-03-24T20:07:10.942Z,1.57
2019-03-24T20:09:40.821Z,1.97
2019-03-24T20:12:10.708Z,1.90
2019-03-24T20:14:40.605Z,1.87
2019-03-24T20:17:10.498Z,2.23
2019-03-24T20:19:40.389Z,1.80
2019-03-24T20:22:10.276Z,2.00
2019-03-24T20:24:40.170Z,1.97
2019-03-24T20:27:10.057Z,2.03
2019-03-24T20:29:40.008Z,2.13
2019-03-24T20:32:09.889Z,3.00
2019-03-24T20:34:40.196Z,2.37
2019-03-24T20:37:10.105Z,2.07
2019-03-24T20:39:40.008Z,2.10
2019-03-24T20:42:10.274Z,2.20
2019-03-24T20:44:40.145Z,1.80
2019-03-24T20:47:10.056Z,2.13
2019-03-24T20:49:39.922Z,2.13
2019-03-24T20:52:09.800Z,2.90
2019-03-24T20:54:39.719Z,2.80
2019-03-24T20:57:09.631Z,3.37
2019-03-24T20:59:39.522Z,3.13
2019-03-24T21:02:09.431Z,2.93
2019-03-24T21:04:39.351Z,2.23
2019-03-24T21:07:09.543Z,2.20
2019-03-24T21:09:39.535Z,2.47
2019-03-24T21:12:09.446Z,2.23
2019-03-24T21:14:39.345Z,2.27
2019-03-24T21:17:09.235Z,2.60
2019-03-24T21:19:39.492Z,3.10
2019-03-24T21:22:09.382Z,2.70
2019-03-24T21:24:39.681Z,3.43
2019-03-24T21:27:09.591Z,3.10
2019-03-24T21:29:39.487Z,3.30
2019-03-24T21:32:09.389Z,3.40
2019-03-24T21:34:39.272Z,4.60
2019-03-24T21:37:09.262Z,4.67
2019-03-24T21:39:39.137Z,3.63
2019-03-24T21:42:09.036Z,2.93
2019-03-24T21:44:38.928Z,2.80
2019-03-24T21:47:08.944Z,3.60
2019-03-24T21:49:38.856Z,4.13
2019-03-24T21:52:08.807Z,3.57
2019-03-24T21:54:38.727Z,2.37
2019-03-24T21:57:08.650Z,2.63
2019-03-24T21:59:38.612Z,2.20
2019-03-24T22:02:08.655Z,2.27
2019-03-24T22:04:38.621Z,2.63
2019-03-24T22:07:08.530Z,2.30
2019-03-24T22:09:38.545Z,2.30
2019-03-24T22:12:08.499Z,2.50
2019-03-24T22:14:38.769Z,3.00
2019-03-24T22:17:08.712Z,1.80
2019-03-24T22:19:39.700Z,2.47
2019-03-24T22:22:10.690Z,2.20
2019-03-24T22:24:40.692Z,2.77
2019-03-24T22:27:10.863Z,2.83
2019-03-24T22:29:41.092Z,3.60
2019-03-24T22:32:12.791Z,2.73
2019-03-24T22:34:42.686Z,2.77
2019-03-24T22:37:16.096Z,3.00
2019-03-24T22:39:47.427Z,3.00
2019-03-24T22:42:17.320Z,2.73
2019-03-24T22:44:47.191Z,2.27
2019-03-24T22:47:17.093Z,3.13
2019-03-24T22:49:47.000Z,2.60
2019-03-24T22:52:17.193Z,3.50
2019-03-24T22:54:49.403Z,3.23
2019-03-24T22:57:19.307Z,2.63
2019-03-24T22:59:50.251Z,2.33
2019-03-24T23:02:20.830Z,3.07
2019-03-24T23:04:50.718Z,3.80
2019-03-24T23:07:20.687Z,2.87
2019-03-24T23:09:50.622Z,2.93
2019-03-24T23:12:20.774Z,3.63
2019-03-24T23:14:50.678Z,3.40
2019-03-24T23:17:20.664Z,3.40
2019-03-24T23:19:50.591Z,3.03
2019-03-24T23:22:21.523Z,2.87
2019-03-24T23:24:51.460Z,2.73
2019-03-24T23:27:21.380Z,3.17
2019-03-24T23:29:51.260Z,3.80
2019-03-24T23:32:21.151Z,3.77
2019-03-24T23:34:51.024Z,3.30
2019-03-24T23:37:20.916Z,3.27
2019-03-24T23:39:50.868Z,3.23
2019-03-24T23:42:21.110Z,3.07
2019-03-24T23:44:50.999Z,3.27
2019-03-24T23:47:20.896Z,2.90
2019-03-24T23:49:50.808Z,3.50
2019-03-24T23:52:21.602Z,3.30
2019-03-24T23:54:51.782Z,3.70
2019-03-24T23:57:21.686Z,3.27
2019-03-24T23:59:51.557Z,3.90
